sensor_id;sensor_type;location;lat;lon;timestamp;P1;durP1;ratioP1;P2;durP2;ratioP2
6463;SDS011;3265;42.694;23.282;2023-12-04T00:03:09;12.80;;;7.00;;
6463;SDS011;3265;42.694;23.282;2023-12-04T00:21:43;11.97;;;7.50;;
6463;SDS011;3265;42.694;23.282;2023-12-04T00:24:17;14.47;;;8.60;;
6463;SDS011;3265;42.694;23.282;2023-12-04T00:27:02;16.30;;;8.93;;
6463;SDS011;3265;42.694;23.282;2023-12-04T00:29:57;14.87;;;7.73;;
6463;SDS011;3265;42.694;23.282;2023-12-04T00:32:32;11.73;;;7.20;;
6463;SDS011;3265;42.694;23.282;2023-12-04T00:35:04;12.50;;;7.40;;
6463;SDS011;3265;42.694;23.282;2023-12-04T00:37:40;13.13;;;8.00;;
6463;SDS011;3265;42.694;23.282;2023-12-04T00:40:17;16.03;;;7.50;;
6463;SDS011;3265;42.694;23.282;2023-12-04T00:43:04;15.40;;;7.77;;
6463;SDS011;3265;42.694;23.282;2023-12-04T00:45:32;13.33;;;8.07;;
6463;SDS011;3265;42.694;23.282;2023-12-04T00:48:03;13.30;;;8.33;;
6463;SDS011;3265;42.694;23.282;2023-12-04T00:50:30;11.37;;;7.57;;
6463;SDS011;3265;42.694;23.282;2023-12-04T00:52:57;14.37;;;8.40;;
6463;SDS011;3265;42.694;23.282;2023-12-04T00:55:24;16.83;;;8.73;;
6463;SDS011;3265;42.694;23.282;2023-12-04T00:57:51;13.00;;;7.77;;
6463;SDS011;3265;42.694;23.282;2023-12-04T01:00:19;12.27;;;8.03;;
6463;SDS011;3265;42.694;23.282;2023-12-04T01:02:46;12.33;;;7.80;;
6463;SDS011;3265;42.694;23.282;2023-12-04T01:05:12;13.90;;;7.93;;
6463;SDS011;3265;42.694;23.282;2023-12-04T01:07:39;12.07;;;7.13;;
6463;SDS011;3265;42.694;23.282;2023-12-04T01:10:06;14.67;;;8.13;;
6463;SDS011;3265;42.694;23.282;2023-12-04T01:12:34;12.70;;;8.10;;
6463;SDS011;3265;42.694;23.282;2023-12-04T01:15:01;13.70;;;8.73;;
6463;SDS011;3265;42.694;23.282;2023-12-04T01:17:29;14.30;;;8.70;;
6463;SDS011;3265;42.694;23.282;2023-12-04T01:19:56;13.60;;;8.43;;
6463;SDS011;3265;42.694;23.282;2023-12-04T01:22:23;14.00;;;8.33;;
6463;SDS011;3265;42.694;23.282;2023-12-04T01:24:50;12.90;;;7.97;;
6463;SDS011;3265;42.694;23.282;2023-12-04T01:27:17;15.87;;;8.47;;
6463;SDS011;3265;42.694;23.282;2023-12-04T01:29:43;13.60;;;8.10;;
6463;SDS011;3265;42.694;23.282;2023-12-04T01:32:10;13.87;;;8.17;;
6463;SDS011;3265;42.694;23.282;2023-12-04T01:34:38;12.73;;;7.77;;
6463;SDS011;3265;42.694;23.282;2023-12-04T01:37:05;13.57;;;8.50;;
6463;SDS011;3265;42.694;23.282;2023-12-04T01:39:32;12.97;;;8.20;;
6463;SDS011;3265;42.694;23.282;2023-12-04T01:41:59;14.57;;;8.73;;
6463;SDS011;3265;42.694;23.282;2023-12-04T01:44:26;14.47;;;8.17;;
6463;SDS011;3265;42.694;23.282;2023-12-04T01:46:53;13.70;;;8.23;;
6463;SDS011;3265;42.694;23.282;2023-12-04T01:49:20;11.30;;;7.47;;
6463;SDS011;3265;42.694;23.282;2023-12-04T01:51:48;12.47;;;7.50;;
6463;SDS011;3265;42.694;23.282;2023-12-04T01:54:15;14.30;;;8.07;;
6463;SDS011;3265;42.694;23.282;2023-12-04T01:56:43;13.23;;;7.77;;
6463;SDS011;3265;42.694;23.282;2023-12-04T01:59:10;13.80;;;7.90;;
6463;SDS011;3265;42.694;23.282;2023-12-04T02:01:37;13.80;;;7.80;;
6463;SDS011;3265;42.694;23.282;2023-12-04T02:04:05;15.43;;;7.80;;
6463;SDS011;3265;42.694;23.282;2023-12-04T02:06:32;13.97;;;7.87;;
6463;SDS011;3265;42.694;23.282;2023-12-04T02:09:01;14.97;;;8.20;;
6463;SDS011;3265;42.694;23.282;2023-12-04T02:11:28;13.33;;;7.90;;
6463;SDS011;3265;42.694;23.282;2023-12-04T02:13:55;12.23;;;7.10;;
6463;SDS011;3265;42.694;23.282;2023-12-04T02:16:22;16.87;;;7.43;;
6463;SDS011;3265;42.694;23.282;2023-12-04T02:18:52;15.37;;;7.80;;
6463;SDS011;3265;42.694;23.282;2023-12-04T02:21:19;15.87;;;8.13;;
6463;SDS011;3265;42.694;23.282;2023-12-04T02:23:48;13.50;;;7.97;;
6463;SDS011;3265;42.694;23.282;2023-12-04T02:26:16;11.73;;;7.30;;
6463;SDS011;3265;42.694;23.282;2023-12-04T02:28:45;14.23;;;7.80;;
6463;SDS011;3265;42.694;23.282;2023-12-04T02:31:15;12.17;;;7.30;;
6463;SDS011;3265;42.694;23.282;2023-12-04T02:33:44;11.23;;;6.90;;
6463;SDS011;3265;42.694;23.282;2023-12-04T02:36:14;13.47;;;7.73;;
6463;SDS011;3265;42.694;23.282;2023-12-04T02:38:41;18.47;;;7.47;;
6463;SDS011;3265;42.694;23.282;2023-12-04T02:41:09;13.07;;;7.13;;
6463;SDS011;3265;42.694;23.282;2023-12-04T02:43:37;12.60;;;7.70;;
6463;SDS011;3265;42.694;23.282;2023-12-04T02:46:04;14.63;;;7.90;;
6463;SDS011;3265;42.694;23.282;2023-12-04T02:48:30;11.83;;;7.37;;
6463;SDS011;3265;42.694;23.282;2023-12-04T02:50:57;12.27;;;7.77;;
6463;SDS011;3265;42.694;23.282;2023-12-04T02:53:24;12.97;;;8.07;;
6463;SDS011;3265;42.694;23.282;2023-12-04T02:55:51;13.97;;;7.43;;
6463;SDS011;3265;42.694;23.282;2023-12-04T02:58:19;12.40;;;7.30;;
6463;SDS011;3265;42.694;23.282;2023-12-04T03:00:46;13.00;;;7.70;;
6463;SDS011;3265;42.694;23.282;2023-12-04T03:03:13;11.70;;;7.50;;
6463;SDS011;3265;42.694;23.282;2023-12-04T03:05:39;14.63;;;8.10;;
6463;SDS011;3265;42.694;23.282;2023-12-04T03:08:06;16.03;;;8.50;;
6463;SDS011;3265;42.694;23.282;2023-12-04T03:10:33;15.63;;;8.20;;
6463;SDS011;3265;42.694;23.282;2023-12-04T03:13:00;12.70;;;7.10;;
6463;SDS011;3265;42.694;23.282;2023-12-04T03:15:28;10.57;;;6.23;;
6463;SDS011;3265;42.694;23.282;2023-12-04T03:17:55;13.83;;;7.17;;
6463;SDS011;3265;42.694;23.282;2023-12-04T03:20:24;13.33;;;7.23;;
6463;SDS011;3265;42.694;23.282;2023-12-04T03:22:51;13.83;;;7.67;;
6463;SDS011;3265;42.694;23.282;2023-12-04T03:25:17;14.47;;;8.00;;
6463;SDS011;3265;42.694;23.282;2023-12-04T03:27:44;12.00;;;7.17;;
6463;SDS011;3265;42.694;23.282;2023-12-04T03:30:11;13.77;;;7.63;;
6463;SDS011;3265;42.694;23.282;2023-12-04T03:32:39;12.33;;;6.67;;
6463;SDS011;3265;42.694;23.282;2023-12-04T03:35:06;13.40;;;7.50;;
6463;SDS011;3265;42.694;23.282;2023-12-04T03:37:33;12.43;;;7.13;;
6463;SDS011;3265;42.694;23.282;2023-12-04T03:40:00;14.60;;;8.03;;
6463;SDS011;3265;42.694;23.282;2023-12-04T03:42:27;14.80;;;8.40;;
6463;SDS011;3265;42.694;23.282;2023-12-04T03:44:54;12.70;;;7.23;;
6463;SDS011;3265;42.694;23.282;2023-12-04T03:47:20;11.97;;;7.43;;
6463;SDS011;3265;42.694;23.282;2023-12-04T03:49:50;12.87;;;6.50;;
6463;SDS011;3265;42.694;23.282;2023-12-04T03:52:16;14.57;;;7.73;;
6463;SDS011;3265;42.694;23.282;2023-12-04T03:54:43;13.93;;;7.07;;
6463;SDS011;3265;42.694;23.282;2023-12-04T03:57:10;15.50;;;7.93;;
6463;SDS011;3265;42.694;23.282;2023-12-04T03:59:37;12.70;;;7.27;;
6463;SDS011;3265;42.694;23.282;2023-12-04T04:02:04;12.70;;;7.53;;
6463;SDS011;3265;42.694;23.282;2023-12-04T04:04:30;12.53;;;7.63;;
6463;SDS011;3265;42.694;23.282;2023-12-04T04:06:59;12.20;;;7.10;;
6463;SDS011;3265;42.694;23.282;2023-12-04T04:09:25;11.93;;;7.47;;
6463;SDS011;3265;42.694;23.282;2023-12-04T04:11:52;14.07;;;7.57;;
6463;SDS011;3265;42.694;23.282;2023-12-04T04:14:19;14.30;;;8.23;;
6463;SDS011;3265;42.694;23.282;2023-12-04T04:16:46;16.83;;;9.00;;
6463;SDS011;3265;42.694;23.282;2023-12-04T04:19:12;19.30;;;11.00;;
6463;SDS011;3265;42.694;23.282;2023-12-04T04:21:39;20.20;;;11.60;;
6463;SDS011;3265;42.694;23.282;2023-12-04T04:24:08;18.80;;;10.70;;
6463;SDS011;3265;42.694;23.282;2023-12-04T04:26:35;16.27;;;9.27;;
6463;SDS011;3265;42.694;23.282;2023-12-04T04:29:02;14.30;;;8.20;;
6463;SDS011;3265;42.694;23.282;2023-12-04T04:31:29;15.17;;;8.87;;
6463;SDS011;3265;42.694;23.282;2023-12-04T04:33:55;14.67;;;8.67;;
6463;SDS011;3265;42.694;23.282;2023-12-04T04:36:22;15.50;;;8.03;;
6463;SDS011;3265;42.694;23.282;2023-12-04T04:38:49;16.20;;;8.10;;
6463;SDS011;3265;42.694;23.282;2023-12-04T04:41:17;13.17;;;8.10;;
6463;SDS011;3265;42.694;23.282;2023-12-04T04:43:44;13.33;;;8.07;;
6463;SDS011;3265;42.694;23.282;2023-12-04T04:46:11;13.97;;;7.83;;
6463;SDS011;3265;42.694;23.282;2023-12-04T04:48:37;16.10;;;8.23;;
6463;SDS011;3265;42.694;23.282;2023-12-04T04:51:04;12.70;;;8.30;;
6463;SDS011;3265;42.694;23.282;2023-12-04T04:53:31;17.77;;;8.67;;
6463;SDS011;3265;42.694;23.282;2023-12-04T04:55:58;15.37;;;9.10;;
6463;SDS011;3265;42.694;23.282;2023-12-04T04:58:26;17.30;;;8.83;;
6463;SDS011;3265;42.694;23.282;2023-12-04T05:00:53;17.93;;;9.23;;
6463;SDS011;3265;42.694;23.282;2023-12-04T05:03:20;17.60;;;8.83;;
6463;SDS011;3265;42.694;23.282;2023-12-04T05:05:47;13.67;;;8.50;;
6463;SDS011;3265;42.694;23.282;2023-12-04T05:08:13;18.77;;;9.60;;
6463;SDS011;3265;42.694;23.282;2023-12-04T05:10:40;17.30;;;9.07;;
6463;SDS011;3265;42.694;23.282;2023-12-04T05:13:07;17.83;;;9.30;;
6463;SDS011;3265;42.694;23.282;2023-12-04T05:15:35;16.93;;;10.17;;
6463;SDS011;3265;42.694;23.282;2023-12-04T05:18:02;13.90;;;8.97;;
6463;SDS011;3265;42.694;23.282;2023-12-04T05:20:29;19.07;;;9.33;;
6463;SDS011;3265;42.694;23.282;2023-12-04T05:22:56;18.47;;;10.13;;
6463;SDS011;3265;42.694;23.282;2023-12-04T05:25:23;19.20;;;9.53;;
6463;SDS011;3265;42.694;23.282;2023-12-04T05:27:50;16.53;;;9.57;;
6463;SDS011;3265;42.694;23.282;2023-12-04T05:30:17;17.03;;;9.57;;
6463;SDS011;3265;42.694;23.282;2023-12-04T05:32:45;17.07;;;9.53;;
6463;SDS011;3265;42.694;23.282;2023-12-04T05:35:12;17.90;;;10.20;;
6463;SDS011;3265;42.694;23.282;2023-12-04T05:37:41;19.10;;;10.47;;
6463;SDS011;3265;42.694;23.282;2023-12-04T05:40:08;23.57;;;11.07;;
6463;SDS011;3265;42.694;23.282;2023-12-04T05:42:36;21.23;;;10.70;;
6463;SDS011;3265;42.694;23.282;2023-12-04T05:45:08;14.83;;;9.30;;
6463;SDS011;3265;42.694;23.282;2023-12-04T05:47:35;18.80;;;9.60;;
6463;SDS011;3265;42.694;23.282;2023-12-04T05:50:04;17.93;;;10.77;;
6463;SDS011;3265;42.694;23.282;2023-12-04T05:52:32;17.87;;;10.23;;
6463;SDS011;3265;42.694;23.282;2023-12-04T05:54:59;17.57;;;9.50;;
6463;SDS011;3265;42.694;23.282;2023-12-04T05:57:26;17.43;;;9.10;;
6463;SDS011;3265;42.694;23.282;2023-12-04T05:59:52;18.83;;;9.37;;
6463;SDS011;3265;42.694;23.282;2023-12-04T06:02:19;16.63;;;9.27;;
6463;SDS011;3265;42.694;23.282;2023-12-04T06:04:46;17.33;;;9.13;;
6463;SDS011;3265;42.694;23.282;2023-12-04T06:07:14;16.87;;;8.93;;
6463;SDS011;3265;42.694;23.282;2023-12-04T06:09:41;16.60;;;9.63;;
6463;SDS011;3265;42.694;23.282;2023-12-04T06:12:08;17.07;;;9.53;;
6463;SDS011;3265;42.694;23.282;2023-12-04T06:14:35;16.30;;;8.90;;
6463;SDS011;3265;42.694;23.282;2023-12-04T06:17:02;14.13;;;8.53;;
6463;SDS011;3265;42.694;23.282;2023-12-04T06:19:30;15.33;;;7.73;;
6463;SDS011;3265;42.694;23.282;2023-12-04T06:21:57;14.43;;;8.17;;
6463;SDS011;3265;42.694;23.282;2023-12-04T06:24:25;15.17;;;8.87;;
6463;SDS011;3265;42.694;23.282;2023-12-04T06:26:53;17.50;;;8.90;;
6463;SDS011;3265;42.694;23.282;2023-12-04T06:29:20;17.23;;;9.00;;
6463;SDS011;3265;42.694;23.282;2023-12-04T06:31:47;18.93;;;9.47;;
6463;SDS011;3265;42.694;23.282;2023-12-04T06:34:15;20.27;;;10.00;;
6463;SDS011;3265;42.694;23.282;2023-12-04T06:36:42;19.60;;;10.33;;
6463;SDS011;3265;42.694;23.282;2023-12-04T06:39:09;14.13;;;8.20;;
6463;SDS011;3265;42.694;23.282;2023-12-04T06:41:39;14.23;;;7.93;;
6463;SDS011;3265;42.694;23.282;2023-12-04T06:44:07;16.50;;;9.10;;
6463;SDS011;3265;42.694;23.282;2023-12-04T06:46:35;14.93;;;8.43;;
6463;SDS011;3265;42.694;23.282;2023-12-04T06:49:04;17.70;;;9.23;;
6463;SDS011;3265;42.694;23.282;2023-12-04T06:51:32;16.73;;;9.20;;
6463;SDS011;3265;42.694;23.282;2023-12-04T06:53:59;17.00;;;9.40;;
6463;SDS011;3265;42.694;23.282;2023-12-04T06:56:28;18.13;;;9.27;;
6463;SDS011;3265;42.694;23.282;2023-12-04T06:58:56;17.20;;;8.90;;
6463;SDS011;3265;42.694;23.282;2023-12-04T07:01:23;13.67;;;7.27;;
6463;SDS011;3265;42.694;23.282;2023-12-04T07:03:50;14.27;;;7.90;;
6463;SDS011;3265;42.694;23.282;2023-12-04T07:06:17;11.87;;;7.10;;
6463;SDS011;3265;42.694;23.282;2023-12-04T07:08:43;14.87;;;8.13;;
6463;SDS011;3265;42.694;23.282;2023-12-04T07:11:10;17.60;;;9.43;;
6463;SDS011;3265;42.694;23.282;2023-12-04T07:13:40;14.87;;;8.17;;
6463;SDS011;3265;42.694;23.282;2023-12-04T07:16:09;14.77;;;8.53;;
6463;SDS011;3265;42.694;23.282;2023-12-04T07:18:36;15.33;;;8.40;;
6463;SDS011;3265;42.694;23.282;2023-12-04T07:21:03;18.97;;;9.37;;
6463;SDS011;3265;42.694;23.282;2023-12-04T07:23:30;16.37;;;9.13;;
6463;SDS011;3265;42.694;23.282;2023-12-04T07:25:57;21.13;;;9.70;;
6463;SDS011;3265;42.694;23.282;2023-12-04T07:28:23;16.97;;;9.43;;
6463;SDS011;3265;42.694;23.282;2023-12-04T07:30:50;15.57;;;8.53;;
6463;SDS011;3265;42.694;23.282;2023-12-04T07:33:18;16.70;;;9.47;;
6463;SDS011;3265;42.694;23.282;2023-12-04T07:35:45;18.07;;;9.60;;
6463;SDS011;3265;42.694;23.282;2023-12-04T07:38:12;18.77;;;9.47;;
6463;SDS011;3265;42.694;23.282;2023-12-04T07:40:39;12.03;;;7.13;;
6463;SDS011;3265;42.694;23.282;2023-12-04T07:43:06;13.33;;;7.37;;
6463;SDS011;3265;42.694;23.282;2023-12-04T07:45:33;13.97;;;8.07;;
6463;SDS011;3265;42.694;23.282;2023-12-04T07:48:02;20.03;;;9.43;;
6463;SDS011;3265;42.694;23.282;2023-12-04T07:50:30;15.83;;;9.13;;
6463;SDS011;3265;42.694;23.282;2023-12-04T07:52:57;13.30;;;8.00;;
6463;SDS011;3265;42.694;23.282;2023-12-04T07:55:24;12.97;;;8.40;;
6463;SDS011;3265;42.694;23.282;2023-12-04T07:57:51;14.50;;;8.20;;
6463;SDS011;3265;42.694;23.282;2023-12-04T08:00:19;14.63;;;9.00;;
6463;SDS011;3265;42.694;23.282;2023-12-04T08:02:50;14.73;;;8.57;;
6463;SDS011;3265;42.694;23.282;2023-12-04T08:05:34;15.33;;;8.73;;
6463;SDS011;3265;42.694;23.282;2023-12-04T08:08:01;15.37;;;8.43;;
6463;SDS011;3265;42.694;23.282;2023-12-04T08:10:29;14.57;;;7.87;;
6463;SDS011;3265;42.694;23.282;2023-12-04T08:12:56;11.83;;;7.20;;
6463;SDS011;3265;42.694;23.282;2023-12-04T08:15:23;16.27;;;8.90;;
6463;SDS011;3265;42.694;23.282;2023-12-04T08:17:50;12.47;;;7.37;;
6463;SDS011;3265;42.694;23.282;2023-12-04T08:20:17;11.67;;;6.80;;
6463;SDS011;3265;42.694;23.282;2023-12-04T08:22:51;9.40;;;6.47;;
6463;SDS011;3265;42.694;23.282;2023-12-04T08:25:19;10.47;;;6.57;;
6463;SDS011;3265;42.694;23.282;2023-12-04T08:27:46;11.17;;;7.27;;
6463;SDS011;3265;42.694;23.282;2023-12-04T08:30:14;11.60;;;7.00;;
6463;SDS011;3265;42.694;23.282;2023-12-04T08:32:42;12.97;;;7.23;;
6463;SDS011;3265;42.694;23.282;2023-12-04T08:35:09;14.83;;;7.07;;
6463;SDS011;3265;42.694;23.282;2023-12-04T08:37:39;10.33;;;5.90;;
6463;SDS011;3265;42.694;23.282;2023-12-04T08:40:08;10.03;;;6.00;;
6463;SDS011;3265;42.694;23.282;2023-12-04T08:42:36;8.33;;;5.40;;
6463;SDS011;3265;42.694;23.282;2023-12-04T08:45:03;9.07;;;5.83;;
6463;SDS011;3265;42.694;23.282;2023-12-04T08:47:31;9.33;;;5.87;;
6463;SDS011;3265;42.694;23.282;2023-12-04T08:49:59;9.20;;;5.60;;
6463;SDS011;3265;42.694;23.282;2023-12-04T08:52:26;8.53;;;5.47;;
6463;SDS011;3265;42.694;23.282;2023-12-04T08:54:53;8.60;;;5.70;;
6463;SDS011;3265;42.694;23.282;2023-12-04T08:57:21;10.23;;;6.47;;
6463;SDS011;3265;42.694;23.282;2023-12-04T08:59:48;11.17;;;7.30;;
6463;SDS011;3265;42.694;23.282;2023-12-04T09:02:15;9.97;;;6.03;;
6463;SDS011;3265;42.694;23.282;2023-12-04T09:04:42;10.17;;;6.27;;
6463;SDS011;3265;42.694;23.282;2023-12-04T09:07:09;10.90;;;6.47;;
6463;SDS011;3265;42.694;23.282;2023-12-04T09:09:37;10.70;;;6.40;;
6463;SDS011;3265;42.694;23.282;2023-12-04T09:12:04;9.43;;;5.80;;
6463;SDS011;3265;42.694;23.282;2023-12-04T09:14:35;11.20;;;6.07;;
6463;SDS011;3265;42.694;23.282;2023-12-04T09:17:02;10.43;;;6.37;;
6463;SDS011;3265;42.694;23.282;2023-12-04T09:19:29;12.97;;;6.93;;
6463;SDS011;3265;42.694;23.282;2023-12-04T09:21:57;10.53;;;6.13;;
6463;SDS011;3265;42.694;23.282;2023-12-04T09:24:23;8.10;;;5.80;;
6463;SDS011;3265;42.694;23.282;2023-12-04T09:26:51;8.20;;;5.43;;
6463;SDS011;3265;42.694;23.282;2023-12-04T09:29:17;10.13;;;6.20;;
6463;SDS011;3265;42.694;23.282;2023-12-04T09:31:50;9.60;;;6.00;;
6463;SDS011;3265;42.694;23.282;2023-12-04T09:34:17;9.27;;;5.83;;
6463;SDS011;3265;42.694;23.282;2023-12-04T09:36:45;11.07;;;6.90;;
6463;SDS011;3265;42.694;23.282;2023-12-04T09:39:12;11.57;;;7.00;;
6463;SDS011;3265;42.694;23.282;2023-12-04T09:41:39;8.50;;;5.90;;
6463;SDS011;3265;42.694;23.282;2023-12-04T09:44:08;12.30;;;6.93;;
6463;SDS011;3265;42.694;23.282;2023-12-04T09:46:35;10.27;;;6.07;;
6463;SDS011;3265;42.694;23.282;2023-12-04T09:49:04;9.57;;;5.70;;
6463;SDS011;3265;42.694;23.282;2023-12-04T09:51:32;5.93;;;4.67;;
6463;SDS011;3265;42.694;23.282;2023-12-04T09:54:02;8.40;;;4.97;;
6463;SDS011;3265;42.694;23.282;2023-12-04T09:56:30;9.57;;;5.03;;
6463;SDS011;3265;42.694;23.282;2023-12-04T09:58:59;9.83;;;5.20;;
6463;SDS011;3265;42.694;23.282;2023-12-04T10:01:28;9.13;;;5.73;;
6463;SDS011;3265;42.694;23.282;2023-12-04T10:03:58;9.80;;;5.00;;
6463;SDS011;3265;42.694;23.282;2023-12-04T10:06:27;6.97;;;4.87;;
6463;SDS011;3265;42.694;23.282;2023-12-04T10:08:55;11.60;;;4.93;;
6463;SDS011;3265;42.694;23.282;2023-12-04T10:11:23;7.47;;;5.33;;
6463;SDS011;3265;42.694;23.282;2023-12-04T10:13:52;6.63;;;4.87;;
6463;SDS011;3265;42.694;23.282;2023-12-04T10:16:32;6.13;;;4.80;;
6463;SDS011;3265;42.694;23.282;2023-12-04T10:19:16;7.93;;;4.50;;
6463;SDS011;3265;42.694;23.282;2023-12-04T10:21:46;6.87;;;5.10;;
6463;SDS011;3265;42.694;23.282;2023-12-04T10:24:27;6.40;;;4.63;;
6463;SDS011;3265;42.694;23.282;2023-12-04T10:26:56;5.63;;;5.00;;
6463;SDS011;3265;42.694;23.282;2023-12-04T10:29:24;6.20;;;4.90;;
6463;SDS011;3265;42.694;23.282;2023-12-04T10:31:53;8.20;;;4.47;;
6463;SDS011;3265;42.694;23.282;2023-12-04T10:34:21;6.43;;;4.67;;
6463;SDS011;3265;42.694;23.282;2023-12-04T10:36:52;6.57;;;4.83;;
6463;SDS011;3265;42.694;23.282;2023-12-04T10:39:19;7.30;;;5.63;;
6463;SDS011;3265;42.694;23.282;2023-12-04T10:41:50;8.13;;;4.97;;
6463;SDS011;3265;42.694;23.282;2023-12-04T10:44:26;5.73;;;4.30;;
6463;SDS011;3265;42.694;23.282;2023-12-04T10:46:54;6.07;;;4.47;;
6463;SDS011;3265;42.694;23.282;2023-12-04T10:49:24;5.03;;;4.13;;
6463;SDS011;3265;42.694;23.282;2023-12-04T10:51:56;9.87;;;4.40;;
6463;SDS011;3265;42.694;23.282;2023-12-04T10:54:24;7.73;;;4.93;;
6463;SDS011;3265;42.694;23.282;2023-12-04T10:56:51;9.53;;;5.43;;
6463;SDS011;3265;42.694;23.282;2023-12-04T10:59:21;7.13;;;4.80;;
6463;SDS011;3265;42.694;23.282;2023-12-04T11:01:52;6.67;;;5.20;;
6463;SDS011;3265;42.694;23.282;2023-12-04T11:04:21;8.37;;;5.97;;
6463;SDS011;3265;42.694;23.282;2023-12-04T11:06:53;7.47;;;5.30;;
6463;SDS011;3265;42.694;23.282;2023-12-04T11:09:22;6.57;;;5.40;;
6463;SDS011;3265;42.694;23.282;2023-12-04T11:11:53;7.43;;;5.40;;
6463;SDS011;3265;42.694;23.282;2023-12-04T11:14:24;7.40;;;5.17;;
6463;SDS011;3265;42.694;23.282;2023-12-04T11:16:57;9.13;;;5.53;;
6463;SDS011;3265;42.694;23.282;2023-12-04T11:19:32;8.43;;;5.57;;
6463;SDS011;3265;42.694;23.282;2023-12-04T11:22:07;8.27;;;4.90;;
6463;SDS011;3265;42.694;23.282;2023-12-04T11:24:37;6.97;;;5.30;;
6463;SDS011;3265;42.694;23.282;2023-12-04T11:27:05;7.87;;;5.77;;
6463;SDS011;3265;42.694;23.282;2023-12-04T11:29:32;8.00;;;5.90;;
6463;SDS011;3265;42.694;23.282;2023-12-04T11:32:00;8.67;;;5.57;;
6463;SDS011;3265;42.694;23.282;2023-12-04T11:34:27;7.45;;;6.07;;
6463;SDS011;3265;42.694;23.282;2023-12-04T11:36:54;10.10;;;6.20;;
6463;SDS011;3265;42.694;23.282;2023-12-04T11:39:24;6.97;;;5.70;;
6463;SDS011;3265;42.694;23.282;2023-12-04T11:41:54;6.73;;;5.77;;
6463;SDS011;3265;42.694;23.282;2023-12-04T11:44:21;9.63;;;5.90;;
6463;SDS011;3265;42.694;23.282;2023-12-04T11:46:58;6.30;;;5.60;;
6463;SDS011;3265;42.694;23.282;2023-12-04T11:49:31;8.63;;;6.27;;
6463;SDS011;3265;42.694;23.282;2023-12-04T11:51:58;6.97;;;5.50;;
6463;SDS011;3265;42.694;23.282;2023-12-04T11:54:25;10.53;;;5.60;;
6463;SDS011;3265;42.694;23.282;2023-12-04T11:56:58;7.67;;;5.23;;
6463;SDS011;3265;42.694;23.282;2023-12-04T11:59:27;7.70;;;5.80;;
6463;SDS011;3265;42.694;23.282;2023-12-04T12:01:54;10.67;;;5.77;;
6463;SDS011;3265;42.694;23.282;2023-12-04T12:04:23;10.17;;;6.10;;
6463;SDS011;3265;42.694;23.282;2023-12-04T12:06:50;7.77;;;6.10;;
6463;SDS011;3265;42.694;23.282;2023-12-04T12:09:19;11.80;;;6.93;;
6463;SDS011;3265;42.694;23.282;2023-12-04T12:11:48;9.20;;;7.03;;
6463;SDS011;3265;42.694;23.282;2023-12-04T12:14:20;11.50;;;6.80;;
6463;SDS011;3265;42.694;23.282;2023-12-04T12:16:47;9.70;;;6.90;;
6463;SDS011;3265;42.694;23.282;2023-12-04T12:19:14;9.90;;;6.90;;
6463;SDS011;3265;42.694;23.282;2023-12-04T12:21:43;10.07;;;6.80;;
6463;SDS011;3265;42.694;23.282;2023-12-04T12:24:12;9.33;;;6.40;;
6463;SDS011;3265;42.694;23.282;2023-12-04T12:26:39;9.93;;;6.90;;
6463;SDS011;3265;42.694;23.282;2023-12-04T12:29:08;9.07;;;6.53;;
6463;SDS011;3265;42.694;23.282;2023-12-04T12:31:37;13.33;;;7.37;;
6463;SDS011;3265;42.694;23.282;2023-12-04T12:34:06;8.90;;;6.73;;
6463;SDS011;3265;42.694;23.282;2023-12-04T12:36:32;8.87;;;6.80;;
6463;SDS011;3265;42.694;23.282;2023-12-04T12:38:59;9.43;;;7.03;;
6463;SDS011;3265;42.694;23.282;2023-12-04T12:41:29;14.33;;;7.80;;
6463;SDS011;3265;42.694;23.282;2023-12-04T12:43:55;9.53;;;7.00;;
6463;SDS011;3265;42.694;23.282;2023-12-04T12:46:22;9.80;;;7.40;;
6463;SDS011;3265;42.694;23.282;2023-12-04T12:48:51;9.10;;;7.43;;
6463;SDS011;3265;42.694;23.282;2023-12-04T12:51:18;10.77;;;7.47;;
6463;SDS011;3265;42.694;23.282;2023-12-04T12:53:45;11.70;;;8.07;;
6463;SDS011;3265;42.694;23.282;2023-12-04T12:56:11;12.10;;;7.70;;
6463;SDS011;3265;42.694;23.282;2023-12-04T12:58:38;12.30;;;7.97;;
6463;SDS011;3265;42.694;23.282;2023-12-04T13:01:05;13.88;;;8.70;;
6463;SDS011;3265;42.694;23.282;2023-12-04T13:03:36;14.75;;;8.90;;
6463;SDS011;3265;42.694;23.282;2023-12-04T13:06:05;10.90;;;8.55;;
6463;SDS011;3265;42.694;23.282;2023-12-04T13:08:33;16.40;;;8.95;;
6463;SDS011;3265;42.694;23.282;2023-12-04T13:10:59;14.90;;;9.32;;
6463;SDS011;3265;42.694;23.282;2023-12-04T13:13:26;16.83;;;10.20;;
6463;SDS011;3265;42.694;23.282;2023-12-04T13:15:53;17.83;;;9.70;;
6463;SDS011;3265;42.694;23.282;2023-12-04T13:18:20;17.63;;;10.65;;
6463;SDS011;3265;42.694;23.282;2023-12-04T13:20:47;14.93;;;10.63;;
6463;SDS011;3265;42.694;23.282;2023-12-04T13:23:15;18.58;;;11.10;;
6463;SDS011;3265;42.694;23.282;2023-12-04T13:25:42;16.80;;;11.00;;
6463;SDS011;3265;42.694;23.282;2023-12-04T13:28:09;16.25;;;10.85;;
6463;SDS011;3265;42.694;23.282;2023-12-04T13:30:37;16.95;;;11.15;;
6463;SDS011;3265;42.694;23.282;2023-12-04T13:33:04;21.98;;;12.18;;
6463;SDS011;3265;42.694;23.282;2023-12-04T13:35:31;17.90;;;11.93;;
6463;SDS011;3265;42.694;23.282;2023-12-04T13:37:58;19.63;;;13.27;;
6463;SDS011;3265;42.694;23.282;2023-12-04T13:40:26;19.15;;;12.50;;
6463;SDS011;3265;42.694;23.282;2023-12-04T13:42:57;18.30;;;12.13;;
6463;SDS011;3265;42.694;23.282;2023-12-04T13:45:41;20.20;;;12.10;;
6463;SDS011;3265;42.694;23.282;2023-12-04T13:48:08;21.00;;;12.57;;
6463;SDS011;3265;42.694;23.282;2023-12-04T13:50:35;19.77;;;12.90;;
6463;SDS011;3265;42.694;23.282;2023-12-04T13:53:02;20.20;;;12.60;;
6463;SDS011;3265;42.694;23.282;2023-12-04T13:55:32;20.40;;;12.80;;
6463;SDS011;3265;42.694;23.282;2023-12-04T13:58:12;19.37;;;12.57;;
6463;SDS011;3265;42.694;23.282;2023-12-04T14:01:02;22.77;;;12.90;;
6463;SDS011;3265;42.694;23.282;2023-12-04T14:03:38;20.77;;;12.10;;
6463;SDS011;3265;42.694;23.282;2023-12-04T14:06:05;23.53;;;13.13;;
6463;SDS011;3265;42.694;23.282;2023-12-04T14:08:32;22.53;;;12.67;;
6463;SDS011;3265;42.694;23.282;2023-12-04T14:11:00;22.80;;;12.87;;
6463;SDS011;3265;42.694;23.282;2023-12-04T14:13:27;25.27;;;13.97;;
6463;SDS011;3265;42.694;23.282;2023-12-04T14:15:54;24.73;;;12.90;;
6463;SDS011;3265;42.694;23.282;2023-12-04T14:18:22;23.00;;;12.30;;
6463;SDS011;3265;42.694;23.282;2023-12-04T14:20:49;24.37;;;13.13;;
6463;SDS011;3265;42.694;23.282;2023-12-04T14:23:17;26.70;;;13.77;;
6463;SDS011;3265;42.694;23.282;2023-12-04T14:25:44;25.53;;;13.33;;
6463;SDS011;3265;42.694;23.282;2023-12-04T14:28:13;27.23;;;13.77;;
6463;SDS011;3265;42.694;23.282;2023-12-04T14:30:40;20.50;;;12.50;;
6463;SDS011;3265;42.694;23.282;2023-12-04T14:33:07;25.57;;;12.97;;
6463;SDS011;3265;42.694;23.282;2023-12-04T14:35:34;30.70;;;13.57;;
6463;SDS011;3265;42.694;23.282;2023-12-04T14:38:02;25.43;;;13.47;;
6463;SDS011;3265;42.694;23.282;2023-12-04T14:40:29;27.17;;;14.40;;
6463;SDS011;3265;42.694;23.282;2023-12-04T14:42:56;25.33;;;13.07;;
6463;SDS011;3265;42.694;23.282;2023-12-04T14:45:25;27.77;;;12.53;;
6463;SDS011;3265;42.694;23.282;2023-12-04T14:47:52;23.77;;;12.93;;
6463;SDS011;3265;42.694;23.282;2023-12-04T14:50:22;30.10;;;13.00;;
6463;SDS011;3265;42.694;23.282;2023-12-04T14:52:49;40.77;;;14.27;;
6463;SDS011;3265;42.694;23.282;2023-12-04T14:55:18;23.70;;;12.67;;
6463;SDS011;3265;42.694;23.282;2023-12-04T14:58:11;24.00;;;12.23;;
6463;SDS011;3265;42.694;23.282;2023-12-04T15:01:09;31.57;;;12.23;;
6463;SDS011;3265;42.694;23.282;2023-12-04T15:04:05;27.67;;;12.13;;
6463;SDS011;3265;42.694;23.282;2023-12-04T15:07:10;30.17;;;12.20;;
6463;SDS011;3265;42.694;23.282;2023-12-04T15:09:53;26.17;;;13.90;;
6463;SDS011;3265;42.694;23.282;2023-12-04T15:12:37;23.07;;;13.00;;
6463;SDS011;3265;42.694;23.282;2023-12-04T15:15:31;30.10;;;13.90;;